Main page
METAR-TAF:

METAR-TAF

Airports :

Glasgow Prestwick Airport

Glasgow-Prestwick, Scotland

latitude: 55-30N, longitude: 004-35W, elevation: 20 m

Current weather observation

The report was made 15 minutes ago, at 22:20 UTC
Wind 15 kt from the West
Temperature 10°C
Humidity 71%
Pressure 1011 hPa
Visibility 10 km or more
Few clouds at a height of 3500 ft

METAR: EGPK 212220Z 26015KT 9999 FEW035 10/05 Q1011

Time: 23:35 (22:35 UTC)

Forecast

The report was made 5 hours and 39 minutes ago, at 16:56 UTC
Forecast valid from 21 at 18 UTC to 22 at 18 UTC
Wind 12 kt from the West
Visibility 10 km or more
Scattered clouds at a height of 3000 ft
Temporary
from 21 at 18 UTC to 22 at 07 UTC
Wind 18 kt from the West/Northwest with gusts up to 28 kt
Probability 40% :
Temporary
from 21 at 18 UTC to 22 at 06 UTC
Visibility: 6000 m
rain showers

TAF: EGPK 211656Z 2118/2218 27012KT 9999 SCT030 TEMPO 2118/2207 29018G28KT PROB40 TEMPO 2118/2206 6000 SHRA

Weather observations and forecasts of more than 4000 airports (METAR and TAF reports).

The available stations are represented by yellow and red dots on the map.

Hover mouse over dot to see the name of the station.

Then click to see weather observations and forecasts.

To change the map : click on the green buttons with a black cross to zoom in, on the green button with a dash to zoom out, or on the green arrows for adjacent maps.


METAR-TAF: